Time,TemperatureF,DewpointF,PressureIn,WindDirection,WindDirectionDegrees,WindSpeedMPH,WindSpeedGustMPH,Humidity,HourlyPrecipIn,Conditions,Clouds,dailyrainin,SoftwareType,DateUTC
2014-02-15 00:03:00,53.2,33.4,29.96,North,0,2.0,2.0,47,0.00,,,0.00,meteobridge,2014-02-15 07:03:00,
2014-02-15 00:08:00,53.1,33.4,29.96,North,0,0.0,2.0,47,0.00,,,0.00,meteobridge,2014-02-15 07:08:00,
2014-02-15 00:14:00,52.9,33.3,29.96,North,0,0.9,2.0,47,0.00,,,0.00,meteobridge,2014-02-15 07:14:00,
2014-02-15 00:19:00,52.9,33.3,29.96,North,0,2.0,2.0,47,0.00,,,0.00,meteobridge,2014-02-15 07:19:00,
2014-02-15 00:24:00,53.2,34.0,29.96,North,0,0.9,0.9,48,0.00,,,0.00,meteobridge,2014-02-15 07:24:00,
2014-02-15 00:29:00,52.9,33.8,29.96,North,0,0.0,0.0,48,0.00,,,0.00,meteobridge,2014-02-15 07:29:00,
2014-02-15 00:34:00,52.9,33.8,29.96,North,0,0.0,0.0,48,0.00,,,0.00,meteobridge,2014-02-15 07:34:00,
2014-02-15 00:40:00,52.3,33.3,29.96,North,0,0.0,0.0,48,0.00,,,0.00,meteobridge,2014-02-15 07:40:00,
2014-02-15 00:45:00,51.6,33.1,29.96,North,0,0.0,0.0,49,0.00,,,0.00,meteobridge,2014-02-15 07:45:00,
2014-02-15 00:50:00,51.3,32.7,29.96,North,0,0.0,0.0,49,0.00,,,0.00,meteobridge,2014-02-15 07:50:00,
2014-02-15 00:55:00,51.1,32.0,29.96,NW,312,0.0,0.0,48,0.00,,,0.00,meteobridge,2014-02-15 07:55:00,
2014-02-15 01:00:00,51.1,32.0,29.96,NW,312,0.0,0.0,48,0.00,,,0.00,meteobridge,2014-02-15 08:00:00,
2014-02-15 01:05:00,51.4,32.4,29.96,NW,312,0.0,0.0,48,0.00,,,0.00,meteobridge,2014-02-15 08:05:00,
2014-02-15 01:10:00,51.3,32.2,29.96,NNW,334,0.0,0.9,48,0.00,,,0.00,meteobridge,2014-02-15 08:10:00,
2014-02-15 01:15:00,51.3,32.2,29.96,NNW,334,0.0,2.0,48,0.00,,,0.00,meteobridge,2014-02-15 08:15:00,
2014-02-15 01:21:00,50.7,31.8,29.96,NNW,334,0.0,0.0,48,0.00,,,0.00,meteobridge,2014-02-15 08:21:00,
2014-02-15 01:26:00,50.5,31.6,29.96,NNW,333,0.9,0.9,48,0.00,,,0.00,meteobridge,2014-02-15 08:26:00,
2014-02-15 01:31:00,50.5,31.6,29.96,West,278,0.9,0.9,48,0.00,,,0.00,meteobridge,2014-02-15 08:31:00,
2014-02-15 01:36:00,50.5,32.0,29.96,West,278,0.0,0.0,49,0.00,,,0.00,meteobridge,2014-02-15 08:36:00,
2014-02-15 01:41:00,50.4,32.0,29.96,West,278,0.0,0.0,49,0.00,,,0.00,meteobridge,2014-02-15 08:41:00,
2014-02-15 01:46:00,49.8,31.5,29.96,West,269,0.9,2.0,49,0.00,,,0.00,meteobridge,2014-02-15 08:46:00,
2014-02-15 01:52:00,50.0,32.2,29.96,West,265,0.0,0.9,50,0.00,,,0.00,meteobridge,2014-02-15 08:52:00,
2014-02-15 01:57:00,50.4,32.0,29.96,West,265,0.0,0.0,49,0.00,,,0.00,meteobridge,2014-02-15 08:57:00,
2014-02-15 02:02:00,50.5,33.1,29.96,West,265,0.0,0.0,51,0.00,,,0.00,meteobridge,2014-02-15 09:02:00,
2014-02-15 02:07:00,50.2,32.7,29.96,West,265,0.0,0.0,51,0.00,,,0.00,meteobridge,2014-02-15 09:07:00,
2014-02-15 02:13:00,50.0,32.5,29.96,West,265,0.0,0.0,51,0.00,,,0.00,meteobridge,2014-02-15 09:13:00,
2014-02-15 02:18:00,49.5,33.1,29.96,West,265,0.0,0.0,53,0.00,,,0.00,meteobridge,2014-02-15 09:18:00,
2014-02-15 02:23:00,49.5,33.1,29.95,West,265,0.9,0.9,53,0.00,,,0.00,meteobridge,2014-02-15 09:23:00,
2014-02-15 02:28:00,49.5,32.5,29.95,West,265,0.0,0.9,52,0.00,,,0.00,meteobridge,2014-02-15 09:28:00,
2014-02-15 02:33:00,49.5,31.6,29.95,ESE,116,0.0,0.0,50,0.00,,,0.00,meteobridge,2014-02-15 09:33:00,
2014-02-15 02:38:00,49.8,31.5,29.95,ESE,117,0.9,2.0,49,0.00,,,0.00,meteobridge,2014-02-15 09:38:00,
2014-02-15 02:43:00,50.0,31.6,29.95,ESE,116,0.0,0.9,49,0.00,,,0.00,meteobridge,2014-02-15 09:43:00,
2014-02-15 02:49:00,49.8,30.4,29.94,SE,127,2.0,2.9,47,0.00,,,0.00,meteobridge,2014-02-15 09:49:00,
2014-02-15 02:54:00,49.8,30.4,29.94,ESE,122,2.0,2.0,47,0.00,,,0.00,meteobridge,2014-02-15 09:54:00,
2014-02-15 02:59:00,49.8,30.4,29.95,ESE,123,0.9,0.9,47,0.00,,,0.00,meteobridge,2014-02-15 09:59:00,
2014-02-15 03:04:00,50.0,30.6,29.94,SE,124,0.9,2.0,47,0.00,,,0.00,meteobridge,2014-02-15 10:04:00,
2014-02-15 03:09:00,49.8,30.9,29.95,SE,124,0.0,0.0,48,0.00,,,0.00,meteobridge,2014-02-15 10:09:00,
2014-02-15 03:14:00,49.1,31.3,29.94,SE,124,0.0,0.0,50,0.00,,,0.00,meteobridge,2014-02-15 10:14:00,
2014-02-15 03:19:00,48.7,31.5,29.94,SE,124,0.0,0.0,51,0.00,,,0.00,meteobridge,2014-02-15 10:19:00,
2014-02-15 03:25:00,48.0,30.7,29.94,ESE,110,0.0,0.0,51,0.00,,,0.00,meteobridge,2014-02-15 10:25:00,
2014-02-15 03:27:00,47.8,30.6,29.94,ESE,110,0.0,0.0,51,0.00,,,0.00,meteobridge,2014-02-15 10:27:00,
2014-02-15 03:28:00,47.8,30.6,29.94,ESE,110,0.0,0.0,51,0.00,,,0.00,meteobridge,2014-02-15 10:28:00,
2014-02-15 03:29:00,47.7,30.4,29.94,ESE,110,0.0,0.0,51,0.00,,,0.00,meteobridge,2014-02-15 10:29:00,
2014-02-15 03:30:00,47.7,30.9,29.94,ESE,110,0.0,0.0,52,0.00,,,0.00,meteobridge,2014-02-15 10:30:00,
2014-02-15 03:32:00,47.8,30.6,29.94,ESE,110,0.0,0.0,51,0.00,,,0.00,meteobridge,2014-02-15 10:32:00,
2014-02-15 03:35:00,47.8,30.6,29.94,ESE,110,0.0,0.0,51,0.00,,,0.00,meteobridge,2014-02-15 10:35:00,
2014-02-15 03:38:00,48.0,31.3,29.94,ESE,110,0.0,0.0,52,0.00,,,0.00,meteobridge,2014-02-15 10:38:00,
2014-02-15 03:40:00,47.8,31.1,29.94,ESE,110,0.0,0.0,52,0.00,,,0.00,meteobridge,2014-02-15 10:40:00,
2014-02-15 03:42:00,47.8,31.1,29.94,ESE,110,0.0,0.0,52,0.00,,,0.00,meteobridge,2014-02-15 10:42:00,
2014-02-15 03:44:00,47.7,31.3,29.94,ESE,110,0.0,0.0,53,0.00,,,0.00,meteobridge,2014-02-15 10:44:00,
2014-02-15 03:49:00,47.7,30.9,29.94,ESE,110,0.0,0.0,52,0.00,,,0.00,meteobridge,2014-02-15 10:49:00,
2014-02-15 03:50:00,47.7,30.9,29.94,ESE,110,0.0,0.0,52,0.00,,,0.00,meteobridge,2014-02-15 10:50:00,
2014-02-15 03:51:00,47.7,30.9,29.94,ESE,110,0.0,0.0,52,0.00,,,0.00,meteobridge,2014-02-15 10:51:00,
2014-02-15 03:52:00,47.8,31.1,29.94,ESE,110,0.0,0.0,52,0.00,,,0.00,meteobridge,2014-02-15 10:52:00,
2014-02-15 03:55:00,47.8,30.6,29.94,ESE,110,0.0,0.0,51,0.00,,,0.00,meteobridge,2014-02-15 10:55:00,
2014-02-15 03:57:00,47.8,31.1,29.94,ESE,110,0.0,0.0,52,0.00,,,0.00,meteobridge,2014-02-15 10:57:00,
2014-02-15 04:01:00,47.7,30.9,29.94,NE,44,0.0,0.0,52,0.00,,,0.00,meteobridge,2014-02-15 11:01:00,
2014-02-15 04:03:00,47.3,31.1,29.94,NE,44,0.0,0.0,53,0.00,,,0.00,meteobridge,2014-02-15 11:03:00,
2014-02-15 04:08:00,46.9,30.7,29.94,NE,43,0.0,0.0,53,0.00,,,0.00,meteobridge,2014-02-15 11:08:00,
2014-02-15 04:09:00,46.9,30.2,29.94,NE,44,0.0,0.0,52,0.00,,,0.00,meteobridge,2014-02-15 11:09:00,
2014-02-15 04:14:00,46.8,30.6,29.94,NE,44,0.0,0.0,53,0.00,,,0.00,meteobridge,2014-02-15 11:14:00,
2014-02-15 04:17:00,46.6,30.4,29.94,NE,44,0.0,0.0,53,0.00,,,0.00,meteobridge,2014-02-15 11:17:00,
2014-02-15 04:20:00,46.8,30.0,29.94,NE,44,0.9,2.0,52,0.00,,,0.00,meteobridge,2014-02-15 11:20:00,
2014-02-15 04:24:00,46.9,30.2,29.94,NE,43,0.9,2.0,52,0.00,,,0.00,meteobridge,2014-02-15 11:24:00,
2014-02-15 04:25:00,47.1,30.4,29.94,NE,44,0.9,2.0,52,0.00,,,0.00,meteobridge,2014-02-15 11:25:00,
2014-02-15 04:28:00,46.9,29.8,29.94,NE,44,0.9,2.0,51,0.00,,,0.00,meteobridge,2014-02-15 11:28:00,
2014-02-15 04:32:00,46.8,30.0,29.94,NE,44,0.9,0.9,52,0.00,,,0.00,meteobridge,2014-02-15 11:32:00,
2014-02-15 04:33:00,46.8,30.0,29.94,NE,44,0.0,0.9,52,0.00,,,0.00,meteobridge,2014-02-15 11:33:00,
2014-02-15 04:38:00,47.1,30.4,29.94,NE,44,0.9,2.0,52,0.00,,,0.00,meteobridge,2014-02-15 11:38:00,
2014-02-15 04:42:00,47.1,29.8,29.94,NE,44,0.9,2.0,51,0.00,,,0.00,meteobridge,2014-02-15 11:42:00,
2014-02-15 04:46:00,47.1,30.4,29.94,NNE,32,2.0,2.9,52,0.00,,,0.00,meteobridge,2014-02-15 11:46:00,
2014-02-15 04:47:00,47.1,29.8,29.94,NNE,32,2.0,2.9,51,0.00,,,0.00,meteobridge,2014-02-15 11:47:00,
2014-02-15 04:49:00,47.5,30.2,29.94,NNE,32,0.9,2.0,51,0.00,,,0.00,meteobridge,2014-02-15 11:49:00,
2014-02-15 04:54:00,47.7,30.4,29.94,NNE,32,0.0,0.0,51,0.00,,,0.00,meteobridge,2014-02-15 11:54:00,
2014-02-15 04:56:00,47.5,29.8,29.94,NNE,32,0.0,0.0,50,0.00,,,0.00,meteobridge,2014-02-15 11:56:00,
2014-02-15 05:01:00,47.1,30.4,29.94,NNE,32,0.0,0.0,52,0.00,,,0.00,meteobridge,2014-02-15 12:01:00,
2014-02-15 05:04:00,47.3,30.6,29.94,NNE,32,0.0,0.0,52,0.00,,,0.00,meteobridge,2014-02-15 12:04:00,
2014-02-15 05:06:00,47.1,30.4,29.94,NNE,32,0.0,0.0,52,0.00,,,0.00,meteobridge,2014-02-15 12:06:00,
2014-02-15 05:07:00,47.1,30.4,29.94,NNE,32,0.0,0.0,52,0.00,,,0.00,meteobridge,2014-02-15 12:07:00,
2014-02-15 05:09:00,47.1,30.4,29.94,NNE,32,0.0,0.0,52,0.00,,,0.00,meteobridge,2014-02-15 12:09:00,
2014-02-15 05:11:00,47.1,30.4,29.94,NNE,32,0.0,0.0,52,0.00,,,0.00,meteobridge,2014-02-15 12:11:00,
2014-02-15 05:14:00,46.9,30.2,29.94,NNE,32,0.0,0.0,52,0.00,,,0.00,meteobridge,2014-02-15 12:14:00,
2014-02-15 05:16:00,46.8,30.0,29.94,NNE,32,0.0,0.0,52,0.00,,,0.00,meteobridge,2014-02-15 12:16:00,
2014-02-15 05:21:00,46.6,30.4,29.94,NNE,32,0.0,0.0,53,0.00,,,0.00,meteobridge,2014-02-15 12:21:00,
2014-02-15 05:25:00,46.2,30.9,29.94,NNE,32,0.0,0.0,55,0.00,,,0.00,meteobridge,2014-02-15 12:25:00,
2014-02-15 05:30:00,46.2,30.6,29.95,NNE,32,0.9,2.0,54,0.00,,,0.00,meteobridge,2014-02-15 12:30:00,
2014-02-15 05:33:00,46.2,30.6,29.95,NNE,32,0.9,2.0,54,0.00,,,0.00,meteobridge,2014-02-15 12:33:00,
2014-02-15 05:35:00,46.6,30.4,29.95,NNE,32,0.0,0.9,53,0.00,,,0.00,meteobridge,2014-02-15 12:35:00,
2014-02-15 05:39:00,46.8,30.6,29.95,NNE,32,2.0,2.0,53,0.00,,,0.00,meteobridge,2014-02-15 12:39:00,
2014-02-15 05:40:00,46.8,30.0,29.95,NNE,32,0.9,2.0,52,0.00,,,0.00,meteobridge,2014-02-15 12:40:00,
2014-02-15 05:44:00,46.8,30.0,29.95,NNE,32,2.0,2.0,52,0.00,,,0.00,meteobridge,2014-02-15 12:44:00,
2014-02-15 05:47:00,46.8,29.7,29.95,NNE,32,0.9,0.9,51,0.00,,,0.00,meteobridge,2014-02-15 12:47:00,
2014-02-15 05:49:00,46.8,29.7,29.95,NNE,32,0.0,0.9,51,0.00,,,0.00,meteobridge,2014-02-15 12:49:00,
2014-02-15 05:53:00,46.8,29.7,29.95,NNE,32,0.0,0.0,51,0.00,,,0.00,meteobridge,2014-02-15 12:53:00,
2014-02-15 05:54:00,46.8,29.7,29.95,NNE,32,0.0,0.0,51,0.00,,,0.00,meteobridge,2014-02-15 12:54:00,
2014-02-15 05:56:00,46.6,29.8,29.96,NNE,32,0.0,0.0,52,0.00,,,0.00,meteobridge,2014-02-15 12:56:00,
2014-02-15 06:01:00,46.0,29.5,29.95,NNE,32,0.9,2.0,52,0.00,,,0.00,meteobridge,2014-02-15 13:01:00,
2014-02-15 06:02:00,46.0,29.5,29.96,NNE,32,2.0,2.0,52,0.00,,,0.00,meteobridge,2014-02-15 13:02:00,
2014-02-15 06:03:00,46.0,29.5,29.96,NNE,32,2.0,2.0,52,0.00,,,0.00,meteobridge,2014-02-15 13:03:00,
2014-02-15 06:05:00,46.0,29.5,29.96,NNE,32,0.9,2.0,52,0.00,,,0.00,meteobridge,2014-02-15 13:05:00,
2014-02-15 06:08:00,45.9,29.3,29.96,NNE,32,0.9,0.9,52,0.00,,,0.00,meteobridge,2014-02-15 13:08:00,
2014-02-15 06:10:00,45.7,29.1,29.96,NNE,32,2.0,2.0,52,0.00,,,0.00,meteobridge,2014-02-15 13:10:00,
2014-02-15 06:11:00,45.9,29.3,29.96,NNE,32,0.9,2.0,52,0.00,,,0.00,meteobridge,2014-02-15 13:11:00,
2014-02-15 06:16:00,45.9,29.3,29.96,NNE,32,0.0,2.0,52,0.00,,,0.00,meteobridge,2014-02-15 13:16:00,
2014-02-15 06:19:00,46.0,28.9,29.96,NNE,32,0.0,0.0,51,0.00,,,0.00,meteobridge,2014-02-15 13:19:00,
2014-02-15 06:23:00,46.0,29.5,29.96,NNE,32,0.0,0.0,52,0.00,,,0.00,meteobridge,2014-02-15 13:23:00,
2014-02-15 06:25:00,45.9,29.3,29.96,NNE,32,0.9,2.0,52,0.00,,,0.00,meteobridge,2014-02-15 13:25:00,
2014-02-15 06:29:00,45.7,29.5,29.96,NNE,32,0.0,0.9,53,0.00,,,0.00,meteobridge,2014-02-15 13:29:00,
2014-02-15 06:31:00,45.7,29.5,29.96,NNE,32,0.0,0.9,53,0.00,,,0.00,meteobridge,2014-02-15 13:31:00,
2014-02-15 06:34:00,45.9,30.2,29.96,NNE,32,0.0,0.0,54,0.00,,,0.00,meteobridge,2014-02-15 13:34:00,
2014-02-15 06:36:00,45.9,30.2,29.96,NNE,32,0.0,0.0,54,0.00,,,0.00,meteobridge,2014-02-15 13:36:00,
2014-02-15 06:40:00,46.0,30.4,29.96,NNE,32,0.0,0.0,54,0.00,,,0.00,meteobridge,2014-02-15 13:40:00,
2014-02-15 06:41:00,46.0,29.8,29.96,NNE,32,0.0,0.0,53,0.00,,,0.00,meteobridge,2014-02-15 13:41:00,
2014-02-15 06:46:00,46.0,29.8,29.96,NNE,32,2.0,2.0,53,0.00,,,0.00,meteobridge,2014-02-15 13:46:00,
2014-02-15 06:47:00,46.0,30.4,29.96,NNE,32,2.0,2.0,54,0.00,,,0.00,meteobridge,2014-02-15 13:47:00,
2014-02-15 06:48:00,46.0,29.8,29.96,NNE,32,0.9,2.0,53,0.00,,,0.00,meteobridge,2014-02-15 13:48:00,
2014-02-15 06:51:00,46.0,29.8,29.96,NNE,32,0.9,2.0,53,0.00,,,0.00,meteobridge,2014-02-15 13:51:00,
2014-02-15 06:52:00,46.0,29.8,29.96,NNE,14,0.9,2.9,53,0.00,,,0.00,meteobridge,2014-02-15 13:52:00,
2014-02-15 06:55:00,46.0,29.8,29.96,NNE,14,0.9,2.0,53,0.00,,,0.00,meteobridge,2014-02-15 13:55:00,
2014-02-15 06:57:00,46.0,30.4,29.96,NNE,14,0.0,0.9,54,0.00,,,0.00,meteobridge,2014-02-15 13:57:00,
2014-02-15 07:00:00,45.9,30.2,29.96,NNE,14,0.9,2.0,54,0.00,,,0.00,meteobridge,2014-02-15 14:00:00,
2014-02-15 07:04:00,45.9,30.2,29.96,NNE,14,2.0,2.0,54,0.00,,,0.00,meteobridge,2014-02-15 14:04:00,
2014-02-15 07:05:00,45.7,30.0,29.96,NNE,14,0.9,2.0,54,0.00,,,0.00,meteobridge,2014-02-15 14:05:00,
2014-02-15 07:06:00,45.7,30.0,29.96,NNE,14,0.9,2.0,54,0.00,,,0.00,meteobridge,2014-02-15 14:06:00,
2014-02-15 07:09:00,45.7,30.0,29.96,NNE,14,0.9,2.0,54,0.00,,,0.00,meteobridge,2014-02-15 14:09:00,
2014-02-15 07:14:00,45.5,29.8,29.97,North,5,2.0,2.9,54,0.00,,,0.00,meteobridge,2014-02-15 14:14:00,
2014-02-15 07:15:00,45.5,29.8,29.97,North,0,2.9,2.9,54,0.00,,,0.00,meteobridge,2014-02-15 14:15:00,
2014-02-15 07:16:00,45.3,29.7,29.97,North,0,2.0,2.9,54,0.00,,,0.00,meteobridge,2014-02-15 14:16:00,
2014-02-15 07:19:00,45.5,29.8,29.97,NNE,14,0.9,2.9,54,0.00,,,0.00,meteobridge,2014-02-15 14:19:00,
2014-02-15 07:24:00,45.7,30.0,29.97,North,5,0.9,2.0,54,0.00,,,0.00,meteobridge,2014-02-15 14:24:00,
2014-02-15 07:25:00,45.7,30.0,29.97,NNE,24,0.9,2.0,54,0.00,,,0.00,meteobridge,2014-02-15 14:25:00,
2014-02-15 07:28:00,45.7,30.0,29.97,North,9,2.0,2.9,54,0.00,,,0.00,meteobridge,2014-02-15 14:28:00,
2014-02-15 07:33:00,45.7,30.0,29.97,North,355,2.9,4.0,54,0.00,,,0.00,meteobridge,2014-02-15 14:33:00,
2014-02-15 07:38:00,45.7,30.4,29.98,North,355,2.0,2.9,55,0.00,,,0.00,meteobridge,2014-02-15 14:38:00,
2014-02-15 07:39:00,45.7,30.0,29.98,North,0,2.0,2.9,54,0.00,,,0.00,meteobridge,2014-02-15 14:39:00,
2014-02-15 07:41:00,45.7,30.0,29.98,North,0,2.0,2.9,54,0.00,,,0.00,meteobridge,2014-02-15 14:41:00,
2014-02-15 07:46:00,46.0,30.4,29.98,North,355,2.9,2.9,54,0.00,,,0.00,meteobridge,2014-02-15 14:46:00,
2014-02-15 07:48:00,46.4,30.2,29.98,North,355,0.9,2.0,53,0.00,,,0.00,meteobridge,2014-02-15 14:48:00,
2014-02-15 07:49:00,46.6,30.4,29.98,NNW,348,2.0,2.9,53,0.00,,,0.00,meteobridge,2014-02-15 14:49:00,
2014-02-15 07:54:00,47.5,30.2,29.98,North,351,2.0,2.0,51,0.00,,,0.00,meteobridge,2014-02-15 14:54:00,
2014-02-15 07:55:00,47.7,30.9,29.98,NNW,342,0.9,2.0,52,0.00,,,0.00,meteobridge,2014-02-15 14:55:00,
2014-02-15 07:58:00,47.8,31.1,29.98,NNW,336,0.9,2.0,52,0.00,,,0.00,meteobridge,2014-02-15 14:58:00,
2014-02-15 07:59:00,48.0,31.3,29.98,NNW,338,2.0,2.0,52,0.00,,,0.00,meteobridge,2014-02-15 14:59:00,
2014-02-15 08:02:00,48.6,31.3,29.98,NNW,336,0.0,2.9,51,0.00,,,0.00,meteobridge,2014-02-15 15:02:00,
2014-02-15 08:07:00,49.5,31.6,29.99,North,350,0.9,2.0,50,0.00,,,0.00,meteobridge,2014-02-15 15:07:00,
2014-02-15 08:11:00,50.2,31.3,29.99,NNW,337,0.0,2.0,48,0.00,,,0.00,meteobridge,2014-02-15 15:11:00,
2014-02-15 08:13:00,50.4,31.5,29.99,NNW,337,0.9,0.9,48,0.00,,,0.00,meteobridge,2014-02-15 15:13:00,
2014-02-15 08:16:00,51.1,31.1,29.99,North,355,0.9,2.0,46,0.00,,,0.00,meteobridge,2014-02-15 15:16:00,
2014-02-15 08:21:00,52.3,31.6,29.99,North,5,0.9,2.0,45,0.00,,,0.00,meteobridge,2014-02-15 15:21:00,
2014-02-15 08:24:00,53.1,32.4,29.99,NNE,19,0.0,2.0,45,0.00,,,0.00,meteobridge,2014-02-15 15:24:00,
2014-02-15 08:30:00,54.0,32.0,29.99,ENE,75,0.9,2.0,43,0.00,,,0.00,meteobridge,2014-02-15 15:30:00,
2014-02-15 08:31:00,54.3,32.4,29.99,ENE,74,2.0,2.0,43,0.00,,,0.00,meteobridge,2014-02-15 15:31:00,
2014-02-15 08:32:00,54.7,32.5,29.99,ENE,73,0.9,2.0,43,0.00,,,0.00,meteobridge,2014-02-15 15:32:00,
2014-02-15 08:34:00,55.0,32.9,29.99,NNE,27,0.9,2.0,43,0.00,,,0.00,meteobridge,2014-02-15 15:34:00,
2014-02-15 08:36:00,55.8,33.1,29.99,NNE,20,2.0,2.0,42,0.00,,,0.00,meteobridge,2014-02-15 15:36:00,
2014-02-15 08:37:00,55.8,33.1,29.99,NNE,21,0.9,2.0,42,0.00,,,0.00,meteobridge,2014-02-15 15:37:00,
2014-02-15 08:39:00,56.1,33.3,29.99,NNE,21,0.0,0.9,42,0.00,,,0.00,meteobridge,2014-02-15 15:39:00,
2014-02-15 08:44:00,57.7,32.9,29.98,ESE,106,0.9,2.9,39,0.00,,,0.00,meteobridge,2014-02-15 15:44:00,
2014-02-15 08:46:00,58.6,32.4,29.99,SE,128,0.9,2.0,37,0.00,,,0.00,meteobridge,2014-02-15 15:46:00,
2014-02-15 08:48:00,59.0,32.7,29.99,East,101,2.0,2.0,37,0.00,,,0.00,meteobridge,2014-02-15 15:48:00,
2014-02-15 08:49:00,59.5,32.5,29.99,ESE,103,0.9,2.9,36,0.00,,,0.00,meteobridge,2014-02-15 15:49:00,
2014-02-15 08:52:00,60.6,32.9,29.98,SE,125,2.0,4.0,35,0.00,,,0.00,meteobridge,2014-02-15 15:52:00,
2014-02-15 08:53:00,61.2,31.8,29.98,ESE,105,6.0,8.1,33,0.00,,,0.00,meteobridge,2014-02-15 15:53:00,
2014-02-15 08:56:00,63.1,31.3,29.99,ESE,113,6.0,6.9,30,0.00,,,0.00,meteobridge,2014-02-15 15:56:00,
2014-02-15 08:57:00,63.5,31.5,29.98,East,88,2.9,6.9,30,0.00,,,0.00,meteobridge,2014-02-15 15:57:00,
2014-02-15 08:59:00,64.6,30.7,29.99,SE,136,2.0,6.9,28,0.00,,,0.00,meteobridge,2014-02-15 15:59:00,
2014-02-15 09:00:00,64.8,30.9,29.99,ESE,103,6.9,6.9,28,0.00,,,0.00,meteobridge,2014-02-15 16:00:00,
2014-02-15 09:05:00,65.8,30.9,29.99,SE,138,4.0,8.1,27,0.00,,,0.00,meteobridge,2014-02-15 16:05:00,
2014-02-15 09:06:00,66.0,31.1,29.99,East,101,6.9,6.9,27,0.00,,,0.00,meteobridge,2014-02-15 16:06:00,
2014-02-15 09:09:00,66.9,30.9,29.99,SE,135,4.0,8.1,26,0.00,,,0.00,meteobridge,2014-02-15 16:09:00,
2014-02-15 09:11:00,67.3,31.3,29.99,East,80,6.9,8.1,26,0.00,,,0.00,meteobridge,2014-02-15 16:11:00,
2014-02-15 09:12:00,67.3,30.2,29.99,East,79,4.0,6.9,25,0.00,,,0.00,meteobridge,2014-02-15 16:12:00,
2014-02-15 09:15:00,67.6,30.6,29.99,ENE,57,2.9,6.9,25,0.00,,,0.00,meteobridge,2014-02-15 16:15:00,
2014-02-15 09:19:00,68.2,30.0,29.99,ESE,107,2.0,8.1,24,0.00,,,0.00,meteobridge,2014-02-15 16:19:00,
2014-02-15 09:20:00,68.2,30.0,29.99,East,97,2.9,8.9,24,0.00,,,0.00,meteobridge,2014-02-15 16:20:00,
2014-02-15 09:22:00,68.5,30.4,29.99,East,93,4.0,8.1,24,0.00,,,0.00,meteobridge,2014-02-15 16:22:00,
2014-02-15 09:25:00,68.9,30.6,29.99,ESE,106,6.9,8.1,24,0.00,,,0.00,meteobridge,2014-02-15 16:25:00,
2014-02-15 09:27:00,69.3,29.8,29.99,ENE,78,6.9,8.9,23,0.00,,,0.00,meteobridge,2014-02-15 16:27:00,
2014-02-15 09:29:00,69.3,29.8,29.99,East,95,4.0,8.1,23,0.00,,,0.00,meteobridge,2014-02-15 16:29:00,
2014-02-15 09:30:00,69.3,30.9,29.99,East,82,6.9,8.9,24,0.00,,,0.00,meteobridge,2014-02-15 16:30:00,
2014-02-15 09:33:00,69.4,30.0,29.99,East,84,4.9,10.1,23,0.00,,,0.00,meteobridge,2014-02-15 16:33:00,
2014-02-15 09:38:00,70.3,30.7,30.00,East,84,2.9,6.9,23,0.00,,,0.00,meteobridge,2014-02-15 16:38:00,
2014-02-15 09:39:00,70.5,30.9,30.00,ESE,119,4.0,6.0,23,0.00,,,0.00,meteobridge,2014-02-15 16:39:00,
2014-02-15 09:41:00,70.9,30.2,30.00,ENE,75,6.9,10.1,22,0.00,,,0.00,meteobridge,2014-02-15 16:41:00,
2014-02-15 09:42:00,70.9,28.9,30.00,ENE,73,8.1,10.1,21,0.00,,,0.00,meteobridge,2014-02-15 16:42:00,
2014-02-15 09:43:00,71.1,30.2,29.99,ENE,74,8.1,10.1,22,0.00,,,0.00,meteobridge,2014-02-15 16:43:00,
2014-02-15 09:44:00,71.1,30.2,30.00,East,86,8.1,10.1,22,0.00,,,0.00,meteobridge,2014-02-15 16:44:00,
2014-02-15 09:45:00,71.1,30.2,30.00,ESE,102,4.0,10.1,22,0.00,,,0.00,meteobridge,2014-02-15 16:45:00,
2014-02-15 09:49:00,71.4,29.5,30.00,East,87,2.9,8.1,21,0.00,,,0.00,meteobridge,2014-02-15 16:49:00,
2014-02-15 09:50:00,71.4,29.5,30.00,East,80,4.0,8.1,21,0.00,,,0.00,meteobridge,2014-02-15 16:50:00,
2014-02-15 09:54:00,72.1,30.0,30.00,ENE,70,4.0,8.9,21,0.00,,,0.00,meteobridge,2014-02-15 16:54:00,
2014-02-15 09:56:00,72.3,30.2,30.00,East,86,4.0,8.9,21,0.00,,,0.00,meteobridge,2014-02-15 16:56:00,
2014-02-15 10:01:00,73.0,30.7,30.00,ENE,71,4.0,6.9,21,0.00,,,0.00,meteobridge,2014-02-15 17:01:00,
2014-02-15 10:06:00,73.4,29.8,30.00,East,98,6.9,8.9,20,0.00,,,0.00,meteobridge,2014-02-15 17:06:00,
2014-02-15 10:11:00,73.9,30.4,30.00,East,98,8.1,8.1,20,0.00,,,0.00,meteobridge,2014-02-15 17:11:00,
2014-02-15 10:16:00,74.8,29.8,29.99,ESE,108,4.0,8.9,19,0.00,,,0.00,meteobridge,2014-02-15 17:16:00,
2014-02-15 10:21:00,75.0,30.0,29.99,ESE,111,6.0,8.1,19,0.00,,,0.00,meteobridge,2014-02-15 17:21:00,
2014-02-15 10:26:00,75.7,31.8,29.99,ENE,74,4.0,8.1,20,0.00,,,0.00,meteobridge,2014-02-15 17:26:00,
2014-02-15 10:31:00,76.3,30.9,29.99,SE,146,2.9,6.0,19,0.00,,,0.00,meteobridge,2014-02-15 17:31:00,
2014-02-15 10:36:00,76.5,31.1,29.99,South,174,4.9,8.1,19,0.00,,,0.00,meteobridge,2014-02-15 17:36:00,
2014-02-15 10:41:00,77.0,30.2,30.00,SE,125,2.0,6.0,18,0.00,,,0.00,meteobridge,2014-02-15 17:41:00,
2014-02-15 10:46:00,77.0,31.6,29.99,SSE,159,4.0,6.0,19,0.00,,,0.00,meteobridge,2014-02-15 17:46:00,
2014-02-15 10:51:00,77.4,31.8,30.00,ESE,107,4.0,8.1,19,0.00,,,0.00,meteobridge,2014-02-15 17:51:00,
2014-02-15 10:56:00,77.4,30.6,30.00,South,188,2.9,4.9,18,0.00,,,0.00,meteobridge,2014-02-15 17:56:00,
2014-02-15 11:02:00,77.0,35.2,30.00,SSW,198,2.9,6.9,22,0.00,,,0.00,meteobridge,2014-02-15 18:02:00,
2014-02-15 11:07:00,76.8,35.1,30.00,SSE,154,2.9,4.0,22,0.00,,,0.00,meteobridge,2014-02-15 18:07:00,
2014-02-15 11:12:00,77.0,35.2,29.99,SSE,167,4.0,6.0,22,0.00,,,0.00,meteobridge,2014-02-15 18:12:00,
2014-02-15 11:17:00,76.8,35.1,29.99,South,171,4.9,6.9,22,0.00,,,0.00,meteobridge,2014-02-15 18:17:00,
2014-02-15 11:22:00,77.2,37.6,29.99,South,173,6.0,6.0,24,0.00,,,0.00,meteobridge,2014-02-15 18:22:00,
2014-02-15 11:27:00,76.8,36.1,29.99,SW,227,4.0,4.0,23,0.00,,,0.00,meteobridge,2014-02-15 18:27:00,
2014-02-15 11:32:00,78.3,36.3,29.98,SSE,161,4.9,8.9,22,0.00,,,0.00,meteobridge,2014-02-15 18:32:00,
2014-02-15 11:37:00,78.1,36.1,29.98,SW,230,0.9,4.0,22,0.00,,,0.00,meteobridge,2014-02-15 18:37:00,
2014-02-15 11:42:00,78.4,35.2,29.98,South,171,4.0,4.9,21,0.00,,,0.00,meteobridge,2014-02-15 18:42:00,
2014-02-15 11:47:00,79.5,36.1,29.98,SSW,198,2.0,2.9,21,0.00,,,0.00,meteobridge,2014-02-15 18:47:00,
2014-02-15 11:52:00,80.6,37.0,29.98,SSE,163,4.0,4.0,21,0.00,,,0.00,meteobridge,2014-02-15 18:52:00,
2014-02-15 11:57:00,80.4,35.6,29.98,SW,217,2.9,2.9,20,0.00,,,0.00,meteobridge,2014-02-15 18:57:00,
2014-02-15 12:02:00,79.5,36.1,29.98,WNW,300,0.0,2.9,21,0.00,,,0.00,meteobridge,2014-02-15 19:02:00,
2014-02-15 12:07:00,80.1,35.4,29.97,SW,214,0.9,4.0,20,0.00,,,0.00,meteobridge,2014-02-15 19:07:00,
2014-02-15 12:12:00,80.4,34.3,29.97,SSE,152,0.9,4.0,19,0.00,,,0.00,meteobridge,2014-02-15 19:12:00,
2014-02-15 12:17:00,81.3,33.8,29.97,North,5,0.9,0.9,18,0.00,,,0.00,meteobridge,2014-02-15 19:17:00,
2014-02-15 12:22:00,82.0,34.3,29.97,ENE,73,2.0,2.0,18,0.00,,,0.00,meteobridge,2014-02-15 19:22:00,
2014-02-15 12:28:00,81.7,34.0,29.97,ESE,110,0.9,2.0,18,0.00,,,0.00,meteobridge,2014-02-15 19:28:00,
2014-02-15 12:33:00,82.2,33.1,29.96,ESE,116,0.9,2.9,17,0.00,,,0.00,meteobridge,2014-02-15 19:33:00,
2014-02-15 12:38:00,82.2,33.1,29.96,NE,49,0.0,2.0,17,0.00,,,0.00,meteobridge,2014-02-15 19:38:00,
2014-02-15 12:43:00,82.6,33.4,29.97,SSE,162,2.0,2.0,17,0.00,,,0.00,meteobridge,2014-02-15 19:43:00,
2014-02-15 12:48:00,83.3,34.0,29.97,WSW,242,2.0,4.0,17,0.00,,,0.00,meteobridge,2014-02-15 19:48:00,
2014-02-15 12:53:00,83.1,32.4,29.96,West,271,2.0,2.9,16,0.00,,,0.00,meteobridge,2014-02-15 19:53:00,
2014-02-15 12:58:00,82.6,33.4,29.96,NW,323,2.9,2.9,17,0.00,,,0.00,meteobridge,2014-02-15 19:58:00,
2014-02-15 13:03:00,83.8,32.9,29.96,WSW,238,2.0,2.0,16,0.00,,,0.00,meteobridge,2014-02-15 20:03:00,
2014-02-15 13:08:00,84.7,32.0,29.96,WSW,254,0.0,2.9,15,0.00,,,0.00,meteobridge,2014-02-15 20:08:00,
2014-02-15 13:13:00,84.7,32.0,29.95,West,271,2.9,2.9,15,0.00,,,0.00,meteobridge,2014-02-15 20:13:00,
2014-02-15 13:18:00,85.5,32.5,29.95,SSW,195,2.9,4.0,15,0.00,,,0.00,meteobridge,2014-02-15 20:18:00,
2014-02-15 13:23:00,85.3,30.7,29.95,NW,316,2.0,4.0,14,0.00,,,0.00,meteobridge,2014-02-15 20:23:00,
2014-02-15 13:28:00,85.5,30.9,29.95,WSW,246,2.9,2.9,14,0.00,,,0.00,meteobridge,2014-02-15 20:28:00,
2014-02-15 13:34:00,84.9,30.4,29.94,ESE,103,2.0,2.9,14,0.00,,,0.00,meteobridge,2014-02-15 20:34:00,
2014-02-15 13:39:00,85.5,32.5,29.93,NW,319,0.9,2.9,15,0.00,,,0.00,meteobridge,2014-02-15 20:39:00,
2014-02-15 13:44:00,86.4,31.5,29.93,WSW,237,2.0,6.9,14,0.00,,,0.00,meteobridge,2014-02-15 20:44:00,
2014-02-15 13:49:00,86.4,29.7,29.93,West,276,0.0,4.0,13,0.00,,,0.00,meteobridge,2014-02-15 20:49:00,
2014-02-15 13:54:00,86.2,31.5,29.93,SSW,200,0.0,0.9,14,0.00,,,0.00,meteobridge,2014-02-15 20:54:00,
2014-02-15 13:59:00,85.6,30.9,29.93,West,271,2.9,4.0,14,0.00,,,0.00,meteobridge,2014-02-15 20:59:00,
2014-02-15 14:04:00,86.7,30.0,29.93,NW,306,4.0,6.9,13,0.00,,,0.00,meteobridge,2014-02-15 21:04:00,
2014-02-15 14:09:00,86.0,31.3,29.93,SE,142,0.0,4.9,14,0.00,,,0.00,meteobridge,2014-02-15 21:09:00,
2014-02-15 14:14:00,86.7,31.8,29.92,South,182,0.9,6.0,14,0.00,,,0.00,meteobridge,2014-02-15 21:14:00,
2014-02-15 14:19:00,86.5,33.4,29.92,NE,51,2.0,8.9,15,0.00,,,0.00,meteobridge,2014-02-15 21:19:00,
2014-02-15 14:24:00,85.8,34.5,29.92,West,281,2.0,4.0,16,0.00,,,0.00,meteobridge,2014-02-15 21:24:00,
2014-02-15 14:29:00,86.2,33.1,29.92,NW,321,2.0,4.0,15,0.00,,,0.00,meteobridge,2014-02-15 21:29:00,
2014-02-15 14:34:00,85.1,33.8,29.92,NNW,348,4.9,6.9,16,0.00,,,0.00,meteobridge,2014-02-15 21:34:00,
2014-02-15 14:39:00,84.7,33.6,29.91,NNW,341,2.0,10.1,16,0.00,,,0.00,meteobridge,2014-02-15 21:39:00,
2014-02-15 14:44:00,85.5,37.0,29.91,NW,321,4.9,4.9,18,0.00,,,0.00,meteobridge,2014-02-15 21:44:00,
2014-02-15 14:49:00,85.1,35.4,29.91,North,0,6.0,12.1,17,0.00,,,0.00,meteobridge,2014-02-15 21:49:00,
2014-02-15 14:54:00,85.5,35.6,29.91,NNW,345,2.9,6.9,17,0.00,,,0.00,meteobridge,2014-02-15 21:54:00,
2014-02-15 14:59:00,85.6,37.2,29.91,WNW,303,8.1,8.1,18,0.00,,,0.00,meteobridge,2014-02-15 21:59:00,
2014-02-15 15:05:00,84.9,38.1,29.91,North,355,4.0,8.1,19,0.00,,,0.00,meteobridge,2014-02-15 22:05:00,
2014-02-15 15:10:00,84.6,36.3,29.91,NNE,33,2.9,6.0,18,0.00,,,0.00,meteobridge,2014-02-15 22:10:00,
2014-02-15 15:15:00,85.1,35.4,29.91,NW,317,2.9,4.0,17,0.00,,,0.00,meteobridge,2014-02-15 22:15:00,
2014-02-15 15:20:00,85.1,36.9,29.91,NW,325,6.0,8.9,18,0.00,,,0.00,meteobridge,2014-02-15 22:20:00,
2014-02-15 15:25:00,84.6,36.3,29.90,North,355,4.9,6.0,18,0.00,,,0.00,meteobridge,2014-02-15 22:25:00,
2014-02-15 15:30:00,84.6,34.9,29.90,North,5,4.0,6.9,17,0.00,,,0.00,meteobridge,2014-02-15 22:30:00,
2014-02-15 15:35:00,84.7,35.1,29.90,North,355,2.0,4.0,17,0.00,,,0.00,meteobridge,2014-02-15 22:35:00,
2014-02-15 15:40:00,84.4,34.9,29.90,NNE,26,4.9,4.9,17,0.00,,,0.00,meteobridge,2014-02-15 22:40:00,
2014-02-15 15:45:00,84.4,36.3,29.90,North,5,4.0,6.9,18,0.00,,,0.00,meteobridge,2014-02-15 22:45:00,
2014-02-15 15:50:00,84.2,34.7,29.90,North,10,2.0,4.9,17,0.00,,,0.00,meteobridge,2014-02-15 22:50:00,
2014-02-15 15:55:00,84.4,34.9,29.90,NW,306,4.0,4.9,17,0.00,,,0.00,meteobridge,2014-02-15 22:55:00,
2014-02-15 16:00:00,84.0,34.5,29.90,North,349,2.9,4.9,17,0.00,,,0.00,meteobridge,2014-02-15 23:00:00,
2014-02-15 16:05:00,84.0,36.0,29.90,NNW,327,2.9,6.9,18,0.00,,,0.00,meteobridge,2014-02-15 23:05:00,
2014-02-15 16:10:00,84.0,34.5,29.90,North,5,4.0,4.9,17,0.00,,,0.00,meteobridge,2014-02-15 23:10:00,
2014-02-15 16:15:00,83.8,35.8,29.90,North,0,4.0,8.1,18,0.00,,,0.00,meteobridge,2014-02-15 23:15:00,
2014-02-15 16:20:00,83.8,34.3,29.90,NNW,338,2.0,8.9,17,0.00,,,0.00,meteobridge,2014-02-15 23:20:00,
2014-02-15 16:25:00,83.5,35.6,29.90,North,11,4.9,8.1,18,0.00,,,0.00,meteobridge,2014-02-15 23:25:00,
2014-02-15 16:30:00,83.5,36.9,29.90,North,350,6.0,8.1,19,0.00,,,0.00,meteobridge,2014-02-15 23:30:00,
2014-02-15 16:35:00,83.1,37.9,29.90,NNE,13,8.1,8.1,20,0.00,,,0.00,meteobridge,2014-02-15 23:35:00,
2014-02-15 16:41:00,83.1,36.7,29.90,North,0,8.1,8.1,19,0.00,,,0.00,meteobridge,2014-02-15 23:41:00,
2014-02-15 16:46:00,82.9,37.8,29.89,NNW,336,4.0,6.0,20,0.00,,,0.00,meteobridge,2014-02-15 23:46:00,
2014-02-15 16:51:00,82.4,37.2,29.89,North,5,4.0,8.1,20,0.00,,,0.00,meteobridge,2014-02-15 23:51:00,
2014-02-15 16:56:00,81.9,39.2,29.90,NNW,336,4.0,6.9,22,0.00,,,0.00,meteobridge,2014-02-15 23:56:00,
2014-02-15 17:01:00,81.7,37.9,29.89,NNE,13,6.9,6.9,21,0.00,,,0.00,meteobridge,2014-02-16 00:01:00,
2014-02-15 17:06:00,81.3,38.8,29.89,North,5,2.9,6.0,22,0.00,,,0.00,meteobridge,2014-02-16 00:06:00,
2014-02-15 17:11:00,80.8,38.5,29.90,North,5,4.0,6.0,22,0.00,,,0.00,meteobridge,2014-02-16 00:11:00,
2014-02-15 17:16:00,80.6,37.0,29.90,NNW,347,4.9,6.0,21,0.00,,,0.00,meteobridge,2014-02-16 00:16:00,
2014-02-15 17:21:00,80.1,37.8,29.90,North,9,4.0,4.9,22,0.00,,,0.00,meteobridge,2014-02-16 00:21:00,
2014-02-15 17:26:00,79.9,37.6,29.89,NNE,22,4.0,4.0,22,0.00,,,0.00,meteobridge,2014-02-16 00:26:00,
2014-02-15 17:31:00,79.5,37.4,29.89,North,5,4.0,4.9,22,0.00,,,0.00,meteobridge,2014-02-16 00:31:00,
2014-02-15 17:36:00,79.0,39.2,29.89,North,0,2.9,4.0,24,0.00,,,0.00,meteobridge,2014-02-16 00:36:00,
2014-02-15 17:41:00,78.4,38.7,29.89,North,9,0.9,2.9,24,0.00,,,0.00,meteobridge,2014-02-16 00:41:00,
2014-02-15 17:46:00,78.1,39.4,29.89,North,9,0.9,2.0,25,0.00,,,0.00,meteobridge,2014-02-16 00:46:00,
2014-02-15 17:51:00,77.5,39.9,29.89,North,9,2.0,2.0,26,0.00,,,0.00,meteobridge,2014-02-16 00:51:00,
2014-02-15 17:56:00,77.0,39.6,29.89,North,5,0.9,2.0,26,0.00,,,0.00,meteobridge,2014-02-16 00:56:00,
2014-02-15 18:01:00,76.6,39.2,29.89,North,351,0.0,2.9,26,0.00,,,0.00,meteobridge,2014-02-16 01:01:00,
2014-02-15 18:06:00,75.9,40.5,29.89,North,351,0.9,2.0,28,0.00,,,0.00,meteobridge,2014-02-16 01:06:00,
2014-02-15 18:12:00,75.4,40.1,29.89,North,11,2.0,2.0,28,0.00,,,0.00,meteobridge,2014-02-16 01:12:00,
2014-02-15 18:17:00,74.8,40.5,29.90,NNE,15,0.9,2.9,29,0.00,,,0.00,meteobridge,2014-02-16 01:17:00,
2014-02-15 18:22:00,74.5,40.1,29.90,North,5,0.9,2.0,29,0.00,,,0.00,meteobridge,2014-02-16 01:22:00,
2014-02-15 18:27:00,74.1,40.6,29.90,North,5,0.9,2.0,30,0.00,,,0.00,meteobridge,2014-02-16 01:27:00,
2014-02-15 18:32:00,74.1,47.7,29.90,North,5,0.9,0.9,39,0.00,,,0.00,meteobridge,2014-02-16 01:32:00,
2014-02-15 18:37:00,73.8,43.7,29.90,North,5,0.9,0.9,34,0.00,,,0.00,meteobridge,2014-02-16 01:37:00,
2014-02-15 18:42:00,73.0,44.4,29.90,North,5,0.0,0.9,36,0.00,,,0.00,meteobridge,2014-02-16 01:42:00,
2014-02-15 18:47:00,72.0,40.5,29.90,ENE,65,2.0,2.0,32,0.00,,,0.00,meteobridge,2014-02-16 01:47:00,
2014-02-15 18:52:00,71.4,45.1,29.90,SSE,155,0.0,0.9,39,0.00,,,0.00,meteobridge,2014-02-16 01:52:00,
2014-02-15 18:57:00,71.8,43.3,29.90,SSE,155,0.0,0.0,36,0.00,,,0.00,meteobridge,2014-02-16 01:57:00,
2014-02-15 19:03:00,71.4,40.8,29.91,SSE,155,0.9,0.9,33,0.00,,,0.00,meteobridge,2014-02-16 02:03:00,
2014-02-15 19:08:00,69.8,40.1,29.91,SSE,155,0.0,0.9,34,0.00,,,0.00,meteobridge,2014-02-16 02:08:00,
2014-02-15 19:13:00,69.1,41.7,29.91,SSE,155,0.9,0.9,37,0.00,,,0.00,meteobridge,2014-02-16 02:13:00,
2014-02-15 19:18:00,68.4,41.0,29.91,SSE,155,0.0,0.9,37,0.00,,,0.00,meteobridge,2014-02-16 02:18:00,
2014-02-15 19:23:00,68.2,43.0,29.91,SSE,155,0.0,0.9,40,0.00,,,0.00,meteobridge,2014-02-16 02:23:00,
2014-02-15 19:28:00,67.5,42.3,29.91,SSE,155,0.9,0.9,40,0.00,,,0.00,meteobridge,2014-02-16 02:28:00,
2014-02-15 19:33:00,67.5,41.7,29.91,SSE,155,0.0,0.9,39,0.00,,,0.00,meteobridge,2014-02-16 02:33:00,
2014-02-15 19:38:00,66.7,41.0,29.91,SSE,155,0.0,0.9,39,0.00,,,0.00,meteobridge,2014-02-16 02:38:00,
2014-02-15 19:43:00,66.6,41.5,29.91,SSE,155,0.0,0.9,40,0.00,,,0.00,meteobridge,2014-02-16 02:43:00,
2014-02-15 19:48:00,66.0,41.0,29.92,SSE,155,0.0,0.9,40,0.00,,,0.00,meteobridge,2014-02-16 02:48:00,
2014-02-15 19:53:00,65.7,41.4,29.92,SSE,155,0.9,0.9,41,0.00,,,0.00,meteobridge,2014-02-16 02:53:00,
2014-02-15 19:59:00,65.7,40.1,29.92,ESE,115,0.0,0.0,39,0.00,,,0.00,meteobridge,2014-02-16 02:59:00,
2014-02-15 20:04:00,65.8,38.1,29.92,ESE,115,0.0,0.0,36,0.00,,,0.00,meteobridge,2014-02-16 03:04:00,
2014-02-15 20:09:00,66.0,38.3,29.92,ESE,115,0.0,0.0,36,0.00,,,0.00,meteobridge,2014-02-16 03:09:00,
2014-02-15 20:14:00,65.7,37.2,29.92,ESE,115,0.0,0.0,35,0.00,,,0.00,meteobridge,2014-02-16 03:14:00,
2014-02-15 20:19:00,65.5,36.3,29.92,East,89,0.9,2.0,34,0.00,,,0.00,meteobridge,2014-02-16 03:19:00,
2014-02-15 20:24:00,64.8,35.8,29.92,East,89,0.9,2.0,34,0.00,,,0.00,meteobridge,2014-02-16 03:24:00,
2014-02-15 20:30:00,64.0,37.2,29.92,NE,53,0.0,0.0,37,0.00,,,0.00,meteobridge,2014-02-16 03:30:00,
2014-02-15 20:35:00,62.8,35.4,29.92,ENE,75,2.0,2.9,36,0.00,,,0.00,meteobridge,2014-02-16 03:35:00,
2014-02-15 20:40:00,63.3,33.8,29.91,East,91,0.0,2.9,33,0.00,,,0.00,meteobridge,2014-02-16 03:40:00,
2014-02-15 20:45:00,63.9,33.4,29.91,East,85,2.0,2.9,32,0.00,,,0.00,meteobridge,2014-02-16 03:45:00,
2014-02-15 20:50:00,64.2,32.9,29.91,ESE,123,2.9,4.0,31,0.00,,,0.00,meteobridge,2014-02-16 03:50:00,
2014-02-15 20:55:00,64.6,33.3,29.92,ESE,109,0.9,2.0,31,0.00,,,0.00,meteobridge,2014-02-16 03:55:00,
2014-02-15 21:00:00,63.9,33.4,29.92,NE,48,2.0,2.0,32,0.00,,,0.00,meteobridge,2014-02-16 04:00:00,
2014-02-15 21:05:00,63.3,32.9,29.91,ENE,72,2.0,2.9,32,0.00,,,0.00,meteobridge,2014-02-16 04:05:00,
2014-02-15 21:11:00,63.5,32.4,29.92,ESE,113,2.0,2.9,31,0.00,,,0.00,meteobridge,2014-02-16 04:11:00,
2014-02-15 21:16:00,63.7,33.3,29.92,ENE,76,0.0,2.0,32,0.00,,,0.00,meteobridge,2014-02-16 04:16:00,
2014-02-15 21:21:00,63.3,32.2,29.92,ESE,108,2.0,2.9,31,0.00,,,0.00,meteobridge,2014-02-16 04:21:00,
2014-02-15 21:26:00,63.0,31.8,29.92,ESE,115,2.9,2.9,31,0.00,,,0.00,meteobridge,2014-02-16 04:26:00,
2014-02-15 21:31:00,62.6,32.4,29.92,ESE,116,0.0,0.9,32,0.00,,,0.00,meteobridge,2014-02-16 04:31:00,
2014-02-15 21:36:00,62.1,34.2,29.92,ESE,116,0.0,0.0,35,0.00,,,0.00,meteobridge,2014-02-16 04:36:00,
2014-02-15 21:41:00,61.5,32.9,29.93,NNE,33,2.0,2.0,34,0.00,,,0.00,meteobridge,2014-02-16 04:41:00,
2014-02-15 21:47:00,60.3,32.5,29.92,NNE,13,0.0,2.0,35,0.00,,,0.00,meteobridge,2014-02-16 04:47:00,
2014-02-15 21:52:00,60.3,32.5,29.92,NNE,13,0.0,0.9,35,0.00,,,0.00,meteobridge,2014-02-16 04:52:00,
2014-02-15 21:57:00,60.3,31.8,29.93,NNE,13,0.0,0.9,34,0.00,,,0.00,meteobridge,2014-02-16 04:57:00,
2014-02-15 22:01:00,59.9,32.2,29.93,NNE,13,0.0,0.0,35,0.00,,,0.00,meteobridge,2014-02-16 05:01:00,
2014-02-15 22:03:00,59.7,32.0,29.93,NNE,13,0.0,0.0,35,0.00,,,0.00,meteobridge,2014-02-16 05:03:00,
2014-02-15 22:04:00,59.7,32.0,29.93,NNE,13,0.0,0.0,35,0.00,,,0.00,meteobridge,2014-02-16 05:04:00,
2014-02-15 22:05:00,59.4,32.4,29.93,NNE,13,0.0,0.0,36,0.00,,,0.00,meteobridge,2014-02-16 05:05:00,
2014-02-15 22:11:00,58.8,32.5,29.93,NNE,13,0.0,0.0,37,0.00,,,0.00,meteobridge,2014-02-16 05:11:00,
2014-02-15 22:16:00,58.6,32.4,29.93,NW,306,0.0,0.0,37,0.00,,,0.00,meteobridge,2014-02-16 05:16:00,
2014-02-15 22:21:00,58.3,32.2,29.93,WNW,302,0.9,0.9,37,0.00,,,0.00,meteobridge,2014-02-16 05:21:00,
2014-02-15 22:26:00,57.9,32.5,29.93,NW,312,0.0,0.0,38,0.00,,,0.00,meteobridge,2014-02-16 05:26:00,
2014-02-15 22:31:00,57.2,31.8,29.93,North,5,2.9,2.9,38,0.00,,,0.00,meteobridge,2014-02-16 05:31:00,
2014-02-15 22:36:00,56.7,32.0,29.93,North,5,2.0,2.9,39,0.00,,,0.00,meteobridge,2014-02-16 05:36:00,
2014-02-15 22:41:00,55.9,31.3,29.94,North,0,2.9,4.0,39,0.00,,,0.00,meteobridge,2014-02-16 05:41:00,
2014-02-15 22:46:00,55.2,31.3,29.94,North,0,2.0,2.9,40,0.00,,,0.00,meteobridge,2014-02-16 05:46:00,
2014-02-15 22:51:00,55.2,31.3,29.94,North,355,2.0,4.0,40,0.00,,,0.00,meteobridge,2014-02-16 05:51:00,
2014-02-15 22:56:00,55.2,30.7,29.94,North,5,2.0,2.9,39,0.00,,,0.00,meteobridge,2014-02-16 05:56:00,
2014-02-15 23:02:00,55.2,31.3,29.93,NNE,32,0.9,2.0,40,0.00,,,0.00,meteobridge,2014-02-16 06:02:00,
2014-02-15 23:07:00,55.4,31.5,29.93,NNE,32,0.0,2.0,40,0.00,,,0.00,meteobridge,2014-02-16 06:07:00,
2014-02-15 23:12:00,55.2,31.3,29.93,NNE,32,0.0,0.0,40,0.00,,,0.00,meteobridge,2014-02-16 06:12:00,
2014-02-15 23:17:00,54.7,31.5,29.94,North,355,2.0,2.0,41,0.00,,,0.00,meteobridge,2014-02-16 06:17:00,
2014-02-15 23:23:00,54.1,31.5,29.94,NNE,27,0.9,2.0,42,0.00,,,0.00,meteobridge,2014-02-16 06:23:00,
2014-02-15 23:28:00,54.7,32.0,29.93,NNE,27,0.0,0.9,42,0.00,,,0.00,meteobridge,2014-02-16 06:28:00,
2014-02-15 23:33:00,54.7,32.0,29.93,NNE,27,0.0,0.9,42,0.00,,,0.00,meteobridge,2014-02-16 06:33:00,
2014-02-15 23:38:00,54.5,31.8,29.93,NNE,27,0.0,0.0,42,0.00,,,0.00,meteobridge,2014-02-16 06:38:00,
2014-02-15 23:43:00,54.0,31.5,29.93,NNE,27,0.0,0.0,42,0.00,,,0.00,meteobridge,2014-02-16 06:43:00,
2014-02-15 23:48:00,54.1,31.5,29.94,NNE,27,0.9,0.9,42,0.00,,,0.00,meteobridge,2014-02-16 06:48:00,
2014-02-15 23:53:00,54.1,34.3,29.93,SE,144,2.0,2.0,47,0.00,,,0.00,meteobridge,2014-02-16 06:53:00,
2014-02-15 23:58:00,54.3,33.4,29.93,SSE,161,0.9,2.0,45,0.00,,,0.00,meteobridge,2014-02-16 06:58:00,